sensor_id;sensor_type;location;lat;lon;timestamp;temperature;humidity
16838;DHT22;19510;54.486;9.046;2023-06-22T14:29:29;30.20;99.90
16838;DHT22;19510;54.486;9.046;2023-06-22T14:31:54;29.80;99.90
16838;DHT22;19510;54.486;9.046;2023-06-22T14:34:20;29.40;99.90
16838;DHT22;19510;54.486;9.046;2023-06-22T14:36:46;29.40;99.90
16838;DHT22;19510;54.486;9.046;2023-06-22T14:39:12;29.40;99.90
16838;DHT22;19510;54.486;9.046;2023-06-22T14:41:37;29.60;99.90
16838;DHT22;19510;54.486;9.046;2023-06-22T14:44:03;29.90;99.90
16838;DHT22;19510;54.486;9.046;2023-06-22T14:46:29;29.70;99.90
16838;DHT22;19510;54.486;9.046;2023-06-22T14:48:55;29.70;99.90
16838;DHT22;19510;54.486;9.046;2023-06-22T14:51:20;29.60;99.90
16838;DHT22;19510;54.486;9.046;2023-06-22T14:53:46;29.50;99.90
16838;DHT22;19510;54.486;9.046;2023-06-22T14:56:12;29.40;99.90
16838;DHT22;19510;54.486;9.046;2023-06-22T14:58:43;29.30;99.90
16838;DHT22;19510;54.486;9.046;2023-06-22T15:01:12;29.00;99.90
16838;DHT22;19510;54.486;9.046;2023-06-22T15:03:37;28.80;99.90
16838;DHT22;19510;54.486;9.046;2023-06-22T15:06:04;28.60;99.90
16838;DHT22;19510;54.486;9.046;2023-06-22T15:08:30;28.30;99.90
16838;DHT22;19510;54.486;9.046;2023-06-22T15:10:59;28.20;99.90
16838;DHT22;19510;54.486;9.046;2023-06-22T15:13:25;28.20;99.90
16838;DHT22;19510;54.486;9.046;2023-06-22T15:15:52;28.00;99.90
16838;DHT22;19510;54.486;9.046;2023-06-22T15:18:18;28.00;99.90
16838;DHT22;19510;54.486;9.046;2023-06-22T15:20:44;28.20;99.90
16838;DHT22;19510;54.486;9.046;2023-06-22T15:23:11;28.30;99.90
16838;DHT22;19510;54.486;9.046;2023-06-22T15:25:37;28.40;99.90
16838;DHT22;19510;54.486;9.046;2023-06-22T15:28:03;28.30;99.90
16838;DHT22;19510;54.486;9.046;2023-06-22T15:30:29;28.20;99.90
16838;DHT22;19510;54.486;9.046;2023-06-22T15:32:56;28.10;99.90
16838;DHT22;19510;54.486;9.046;2023-06-22T15:35:22;28.10;99.90
16838;DHT22;19510;54.486;9.046;2023-06-22T15:37:48;27.90;99.90
16838;DHT22;19510;54.486;9.046;2023-06-22T15:40:14;27.80;99.90
16838;DHT22;19510;54.486;9.046;2023-06-22T15:42:39;27.80;99.90
16838;DHT22;19510;54.486;9.046;2023-06-22T15:45:06;27.60;99.90
16838;DHT22;19510;54.486;9.046;2023-06-22T15:47:31;27.50;99.90
16838;DHT22;19510;54.486;9.046;2023-06-22T15:49:57;27.40;99.90
16838;DHT22;19510;54.486;9.046;2023-06-22T15:52:23;27.40;99.90
16838;DHT22;19510;54.486;9.046;2023-06-22T15:54:49;27.30;99.90
16838;DHT22;19510;54.486;9.046;2023-06-22T15:57:21;27.10;99.90
16838;DHT22;19510;54.486;9.046;2023-06-22T15:59:48;27.00;99.90
16838;DHT22;19510;54.486;9.046;2023-06-22T16:02:13;27.00;99.90
16838;DHT22;19510;54.486;9.046;2023-06-22T16:04:39;27.00;99.90
16838;DHT22;19510;54.486;9.046;2023-06-22T16:07:05;26.90;99.90
16838;DHT22;19510;54.486;9.046;2023-06-22T16:09:31;26.90;99.90
16838;DHT22;19510;54.486;9.046;2023-06-22T16:11:57;26.90;99.90
16838;DHT22;19510;54.486;9.046;2023-06-22T16:14:22;26.80;99.90
16838;DHT22;19510;54.486;9.046;2023-06-22T16:16:48;26.70;99.90
16838;DHT22;19510;54.486;9.046;2023-06-22T16:19:14;26.50;99.90
16838;DHT22;19510;54.486;9.046;2023-06-22T16:21:43;26.50;99.90
16838;DHT22;19510;54.486;9.046;2023-06-22T16:24:09;26.50;99.90
16838;DHT22;19510;54.486;9.046;2023-06-22T16:26:39;26.50;99.90
16838;DHT22;19510;54.486;9.046;2023-06-22T16:29:05;26.70;99.90
16838;DHT22;19510;54.486;9.046;2023-06-22T16:31:33;26.60;99.90
16838;DHT22;19510;54.486;9.046;2023-06-22T16:33:59;26.50;99.90
16838;DHT22;19510;54.486;9.046;2023-06-22T16:36:25;26.60;99.90
16838;DHT22;19510;54.486;9.046;2023-06-22T16:38:51;26.70;99.90
16838;DHT22;19510;54.486;9.046;2023-06-22T16:41:17;26.70;99.90
16838;DHT22;19510;54.486;9.046;2023-06-22T16:43:43;26.70;99.90
16838;DHT22;19510;54.486;9.046;2023-06-22T16:46:09;26.70;99.90
16838;DHT22;19510;54.486;9.046;2023-06-22T16:48:38;26.70;99.90
16838;DHT22;19510;54.486;9.046;2023-06-22T16:51:06;26.60;99.90
16838;DHT22;19510;54.486;9.046;2023-06-22T16:53:34;26.60;99.90
16838;DHT22;19510;54.486;9.046;2023-06-22T16:56:03;26.60;99.90
16838;DHT22;19510;54.486;9.046;2023-06-22T16:58:29;26.60;99.90
16838;DHT22;19510;54.486;9.046;2023-06-22T17:00:56;26.60;99.90
16838;DHT22;19510;54.486;9.046;2023-06-22T17:03:32;26.50;99.90
16838;DHT22;19510;54.486;9.046;2023-06-22T17:05:59;26.50;99.90
16838;DHT22;19510;54.486;9.046;2023-06-22T17:08:30;26.40;99.90
16838;DHT22;19510;54.486;9.046;2023-06-22T17:10:58;26.40;99.90
16838;DHT22;19510;54.486;9.046;2023-06-22T17:13:24;26.30;99.90
16838;DHT22;19510;54.486;9.046;2023-06-22T17:15:59;26.30;99.90
16838;DHT22;19510;54.486;9.046;2023-06-22T17:18:25;26.20;99.90
16838;DHT22;19510;54.486;9.046;2023-06-22T17:20:52;26.10;99.90
16838;DHT22;19510;54.486;9.046;2023-06-22T17:23:17;26.10;99.90
16838;DHT22;19510;54.486;9.046;2023-06-22T17:25:46;26.10;99.90
16838;DHT22;19510;54.486;9.046;2023-06-22T17:28:12;25.90;99.90
16838;DHT22;19510;54.486;9.046;2023-06-22T17:30:40;25.80;99.90
16838;DHT22;19510;54.486;9.046;2023-06-22T17:33:13;25.70;99.90
16838;DHT22;19510;54.486;9.046;2023-06-22T17:35:49;25.70;99.90
16838;DHT22;19510;54.486;9.046;2023-06-22T17:38:21;25.70;99.90
16838;DHT22;19510;54.486;9.046;2023-06-22T17:40:48;25.60;99.90
16838;DHT22;19510;54.486;9.046;2023-06-22T17:43:14;25.50;99.90
16838;DHT22;19510;54.486;9.046;2023-06-22T17:45:44;25.50;99.90
16838;DHT22;19510;54.486;9.046;2023-06-22T17:48:10;25.50;99.90
16838;DHT22;19510;54.486;9.046;2023-06-22T17:50:40;25.40;99.90
16838;DHT22;19510;54.486;9.046;2023-06-22T17:53:12;25.30;99.90
16838;DHT22;19510;54.486;9.046;2023-06-22T17:55:39;25.20;99.90
16838;DHT22;19510;54.486;9.046;2023-06-22T17:58:05;25.20;99.90
16838;DHT22;19510;54.486;9.046;2023-06-22T18:00:31;25.10;99.90
16838;DHT22;19510;54.486;9.046;2023-06-22T18:02:57;25.10;99.90
16838;DHT22;19510;54.486;9.046;2023-06-22T18:05:33;25.10;99.90
16838;DHT22;19510;54.486;9.046;2023-06-22T18:08:06;25.10;99.90
16838;DHT22;19510;54.486;9.046;2023-06-22T18:10:40;25.00;99.90
16838;DHT22;19510;54.486;9.046;2023-06-22T18:13:08;24.80;99.90
16838;DHT22;19510;54.486;9.046;2023-06-22T18:15:34;24.80;99.90
16838;DHT22;19510;54.486;9.046;2023-06-22T18:18:02;24.80;99.90
16838;DHT22;19510;54.486;9.046;2023-06-22T18:20:31;24.70;99.90
16838;DHT22;19510;54.486;9.046;2023-06-22T18:23:00;24.70;99.90
16838;DHT22;19510;54.486;9.046;2023-06-22T18:25:31;24.70;99.90
16838;DHT22;19510;54.486;9.046;2023-06-22T18:28:01;24.70;99.90
16838;DHT22;19510;54.486;9.046;2023-06-22T18:30:29;24.70;99.90
16838;DHT22;19510;54.486;9.046;2023-06-22T18:32:54;24.60;99.90
16838;DHT22;19510;54.486;9.046;2023-06-22T18:35:21;24.60;99.90
16838;DHT22;19510;54.486;9.046;2023-06-22T18:37:52;24.50;99.90
16838;DHT22;19510;54.486;9.046;2023-06-22T18:40:21;24.50;99.90
16838;DHT22;19510;54.486;9.046;2023-06-22T18:42:47;24.60;99.90
16838;DHT22;19510;54.486;9.046;2023-06-22T18:45:23;24.60;99.90
16838;DHT22;19510;54.486;9.046;2023-06-22T18:48:04;24.60;99.90
16838;DHT22;19510;54.486;9.046;2023-06-22T18:50:43;24.50;99.90
16838;DHT22;19510;54.486;9.046;2023-06-22T18:56:15;24.40;99.90
16838;DHT22;19510;54.486;9.046;2023-06-22T18:58:41;24.30;99.90
16838;DHT22;19510;54.486;9.046;2023-06-22T19:01:22;24.30;99.90
16838;DHT22;19510;54.486;9.046;2023-06-22T19:03:52;24.30;99.90
16838;DHT22;19510;54.486;9.046;2023-06-22T19:06:55;24.30;99.90
16838;DHT22;19510;54.486;9.046;2023-06-22T19:09:21;24.30;99.90
16838;DHT22;19510;54.486;9.046;2023-06-22T19:11:48;24.30;99.90
16838;DHT22;19510;54.486;9.046;2023-06-22T19:14:21;24.30;99.90
16838;DHT22;19510;54.486;9.046;2023-06-22T19:16:50;24.30;99.90
16838;DHT22;19510;54.486;9.046;2023-06-22T19:19:23;24.30;99.90
16838;DHT22;19510;54.486;9.046;2023-06-22T19:22:00;24.20;99.90
16838;DHT22;19510;54.486;9.046;2023-06-22T19:24:48;24.20;99.90
16838;DHT22;19510;54.486;9.046;2023-06-22T19:27:16;24.20;99.90
16838;DHT22;19510;54.486;9.046;2023-06-22T19:29:42;24.20;99.90
16838;DHT22;19510;54.486;9.046;2023-06-22T19:32:08;24.10;99.90
16838;DHT22;19510;54.486;9.046;2023-06-22T19:34:35;24.10;99.90
16838;DHT22;19510;54.486;9.046;2023-06-22T19:37:02;24.00;99.90
16838;DHT22;19510;54.486;9.046;2023-06-22T19:39:34;23.90;99.90
16838;DHT22;19510;54.486;9.046;2023-06-22T19:42:01;23.90;99.90
16838;DHT22;19510;54.486;9.046;2023-06-22T19:44:30;23.80;99.90
16838;DHT22;19510;54.486;9.046;2023-06-22T19:46:56;23.80;99.90
16838;DHT22;19510;54.486;9.046;2023-06-22T19:49:22;23.70;99.90
16838;DHT22;19510;54.486;9.046;2023-06-22T19:51:47;23.70;99.90
16838;DHT22;19510;54.486;9.046;2023-06-22T19:54:13;23.70;99.90
16838;DHT22;19510;54.486;9.046;2023-06-22T19:56:43;23.70;99.90
16838;DHT22;19510;54.486;9.046;2023-06-22T19:59:10;23.60;99.90
16838;DHT22;19510;54.486;9.046;2023-06-22T20:01:40;23.60;99.90
16838;DHT22;19510;54.486;9.046;2023-06-22T20:04:07;23.60;99.90
16838;DHT22;19510;54.486;9.046;2023-06-22T20:06:35;23.50;99.90
16838;DHT22;19510;54.486;9.046;2023-06-22T20:09:02;23.40;99.90
16838;DHT22;19510;54.486;9.046;2023-06-22T20:11:30;23.40;99.90
16838;DHT22;19510;54.486;9.046;2023-06-22T20:14:00;23.40;99.90
16838;DHT22;19510;54.486;9.046;2023-06-22T20:16:27;23.40;99.90
16838;DHT22;19510;54.486;9.046;2023-06-22T20:21:34;23.30;99.90
16838;DHT22;19510;54.486;9.046;2023-06-22T20:24:07;23.20;99.90
16838;DHT22;19510;54.486;9.046;2023-06-22T20:26:46;23.20;99.90
16838;DHT22;19510;54.486;9.046;2023-06-22T20:29:31;23.10;99.90
16838;DHT22;19510;54.486;9.046;2023-06-22T20:32:13;23.00;99.90
16838;DHT22;19510;54.486;9.046;2023-06-22T20:34:43;23.10;99.90
16838;DHT22;19510;54.486;9.046;2023-06-22T20:37:12;23.00;99.90
16838;DHT22;19510;54.486;9.046;2023-06-22T20:39:38;23.10;99.90
16838;DHT22;19510;54.486;9.046;2023-06-22T20:42:05;23.10;99.90
16838;DHT22;19510;54.486;9.046;2023-06-22T20:44:33;23.00;99.90
16838;DHT22;19510;54.486;9.046;2023-06-22T20:46:59;22.90;99.90
16838;DHT22;19510;54.486;9.046;2023-06-22T20:49:28;22.90;99.90
16838;DHT22;19510;54.486;9.046;2023-06-22T20:51:56;23.00;99.90
16838;DHT22;19510;54.486;9.046;2023-06-22T20:54:22;22.90;99.90
16838;DHT22;19510;54.486;9.046;2023-06-22T20:56:48;22.90;99.90
16838;DHT22;19510;54.486;9.046;2023-06-22T20:59:14;22.80;99.90
16838;DHT22;19510;54.486;9.046;2023-06-22T21:01:41;22.80;99.90
16838;DHT22;19510;54.486;9.046;2023-06-22T21:04:11;22.60;99.90
16838;DHT22;19510;54.486;9.046;2023-06-22T21:06:37;22.60;99.90
16838;DHT22;19510;54.486;9.046;2023-06-22T21:09:03;22.60;99.90
16838;DHT22;19510;54.486;9.046;2023-06-22T21:11:29;22.50;99.90
16838;DHT22;19510;54.486;9.046;2023-06-22T21:13:54;22.50;99.90
16838;DHT22;19510;54.486;9.046;2023-06-22T21:16:22;22.40;99.90
16838;DHT22;19510;54.486;9.046;2023-06-22T21:18:48;22.40;99.90
16838;DHT22;19510;54.486;9.046;2023-06-22T21:21:16;22.50;99.90
16838;DHT22;19510;54.486;9.046;2023-06-22T21:23:42;22.50;99.90
16838;DHT22;19510;54.486;9.046;2023-06-22T21:26:08;22.50;99.90
16838;DHT22;19510;54.486;9.046;2023-06-22T21:28:33;22.50;99.90
16838;DHT22;19510;54.486;9.046;2023-06-22T21:30:59;22.50;99.90
